createdAt,value
2023-03-28T00:01:10.161Z,92.26
2023-03-28T00:03:41.579Z,91.90
2023-03-28T00:06:16.292Z,91.81
2023-03-28T00:08:46.046Z,92.17
2023-03-28T00:11:20.940Z,92.72
2023-03-28T00:14:00.851Z,92.32
2023-03-28T00:16:35.488Z,92.58
2023-03-28T00:19:11.730Z,92.73
2023-03-28T00:21:46.980Z,92.60
2023-03-28T00:24:18.824Z,92.58
2023-03-28T00:26:49.441Z,92.80
2023-03-28T00:29:21.984Z,93.06
2023-03-28T00:31:50.689Z,93.37
2023-03-28T00:34:18.495Z,93.20
2023-03-28T00:36:45.938Z,92.98
2023-03-28T00:39:14.436Z,93.27
2023-03-28T00:41:44.577Z,93.21
2023-03-28T00:44:49.507Z,93.34
2023-03-28T00:47:26.103Z,92.89
2023-03-28T00:50:10.955Z,93.04
2023-03-28T00:52:49.704Z,93.48
2023-03-28T00:55:25.650Z,93.31
2023-03-28T00:57:54.567Z,93.28
2023-03-28T01:00:23.872Z,93.54
2023-03-28T01:02:58.353Z,93.81
2023-03-28T01:05:31.431Z,93.57
2023-03-28T01:08:12.813Z,93.89
2023-03-28T01:10:43.606Z,93.64
2023-03-28T01:13:15.831Z,93.96
2023-03-28T01:15:44.289Z,93.86
2023-03-28T01:18:13.580Z,93.78
2023-03-28T01:21:05.406Z,94.25
2023-03-28T01:24:19.291Z,94.18
2023-03-28T01:27:12.087Z,94.41
2023-03-28T01:30:24.584Z,94.51
2023-03-28T01:33:34.191Z,94.60
2023-03-28T01:36:35.667Z,94.78
2023-03-28T01:39:24.895Z,94.88
2023-03-28T01:42:30.774Z,94.86
2023-03-28T01:45:22.183Z,94.76
2023-03-28T01:48:17.981Z,94.78
2023-03-28T01:51:00.284Z,94.89
2023-03-28T01:53:46.373Z,95.34
2023-03-28T01:56:31.377Z,95.57
2023-03-28T01:59:41.425Z,95.20
2023-03-28T02:02:52.800Z,95.35
2023-03-28T02:05:34.978Z,95.50
2023-03-28T02:08:09.344Z,95.41
2023-03-28T02:10:49.536Z,95.42
2023-03-28T02:14:02.241Z,95.65
2023-03-28T02:17:04.828Z,95.99
2023-03-28T02:19:42.478Z,95.79
2023-03-28T02:22:38.481Z,95.96
2023-03-28T02:25:31.886Z,96.00
2023-03-28T02:28:25.787Z,95.97
2023-03-28T02:31:11.201Z,95.94
2023-03-28T02:33:49.396Z,95.98
2023-03-28T02:36:44.957Z,95.78
2023-03-28T02:39:50.650Z,96.02
2023-03-28T02:42:55.536Z,96.34
2023-03-28T02:45:30.659Z,96.30
2023-03-28T02:48:14.632Z,96.50
2023-03-28T02:51:23.723Z,96.38
2023-03-28T02:54:18.501Z,96.35
2023-03-28T02:57:08.181Z,96.22
2023-03-28T03:00:00.112Z,96.56
2023-03-28T03:02:29.134Z,96.45
2023-03-28T03:04:57.746Z,96.64
2023-03-28T03:07:25.893Z,96.63
2023-03-28T03:09:53.781Z,96.74
2023-03-28T03:12:21.511Z,96.56
2023-03-28T03:14:53.320Z,96.84
2023-03-28T03:17:49.918Z,96.70
2023-03-28T03:20:26.093Z,97.28
2023-03-28T03:22:56.858Z,97.48
2023-03-28T03:25:24.569Z,97.10
2023-03-28T03:28:01.524Z,96.86
2023-03-28T03:30:29.972Z,97.48
2023-03-28T03:33:17.173Z,97.59
2023-03-28T03:35:47.842Z,97.28
2023-03-28T03:38:16.596Z,97.63
2023-03-28T03:40:44.093Z,97.61
2023-03-28T03:43:11.972Z,97.12
2023-03-28T03:45:41.210Z,97.31
2023-03-28T03:48:09.893Z,97.73
2023-03-28T03:50:38.311Z,97.82
2023-03-28T03:53:12.493Z,97.55
2023-03-28T03:55:48.229Z,97.89
2023-03-28T03:58:16.288Z,97.54
2023-03-28T04:00:44.753Z,97.74
2023-03-28T04:03:27.562Z,97.79
2023-03-28T04:05:57.954Z,97.74
2023-03-28T04:08:27.296Z,97.80
2023-03-28T04:10:55.613Z,97.61
2023-03-28T04:13:23.321Z,98.16
2023-03-28T04:15:58.486Z,97.77
2023-03-28T04:18:37.694Z,97.90
2023-03-28T04:21:09.687Z,98.08
2023-03-28T04:23:48.323Z,97.71
2023-03-28T04:26:29.316Z,98.18
2023-03-28T04:29:09.375Z,98.26
2023-03-28T04:31:39.881Z,97.99
2023-03-28T04:34:30.090Z,98.45
2023-03-28T04:37:06.037Z,97.86
2023-03-28T04:39:41.814Z,98.21
2023-03-28T04:42:29.368Z,98.31
2023-03-28T04:45:12.045Z,98.38
2023-03-28T04:47:41.764Z,98.41
2023-03-28T04:50:16.846Z,98.45
2023-03-28T04:52:45.286Z,98.25
2023-03-28T04:55:13.386Z,98.13
2023-03-28T04:57:40.903Z,98.04
2023-03-28T05:00:16.908Z,98.21
2023-03-28T05:03:05.033Z,98.18
2023-03-28T05:05:42.794Z,98.66
2023-03-28T05:08:16.228Z,98.58
2023-03-28T05:10:46.002Z,98.78
2023-03-28T05:13:14.715Z,98.77
2023-03-28T05:15:48.516Z,98.93
2023-03-28T05:18:36.580Z,99.00
2023-03-28T05:21:05.104Z,98.52
2023-03-28T05:23:35.476Z,98.57
2023-03-28T05:26:08.013Z,98.46
2023-03-28T05:28:36.335Z,98.87
2023-03-28T05:31:05.234Z,98.75
2023-03-28T05:33:33.610Z,98.86
2023-03-28T05:36:05.052Z,98.91
2023-03-28T05:38:34.204Z,99.04
2023-03-28T05:41:08.645Z,99.15
2023-03-28T05:43:36.233Z,99.10
2023-03-28T05:46:05.024Z,99.17
2023-03-28T05:48:41.400Z,99.25
2023-03-28T05:51:09.012Z,98.93
2023-03-28T05:53:36.461Z,99.48
2023-03-28T05:56:04.339Z,99.14
2023-03-28T05:58:33.258Z,99.21
2023-03-28T06:01:02.681Z,99.49
2023-03-28T06:03:32.542Z,99.53
2023-03-28T06:06:07.232Z,99.08
2023-03-28T06:08:34.989Z,99.39
2023-03-28T06:11:05.084Z,99.31
2023-03-28T06:13:47.640Z,99.64
2023-03-28T06:16:15.599Z,99.80
2023-03-28T06:18:43.241Z,99.82
2023-03-28T06:21:10.805Z,99.85
2023-03-28T06:23:38.358Z,99.46
2023-03-28T06:26:07.223Z,99.66
2023-03-28T06:28:41.132Z,100.00
2023-03-28T06:31:19.771Z,99.77
2023-03-28T06:33:48.034Z,100.00
2023-03-28T06:36:19.936Z,99.76
2023-03-28T06:38:47.589Z,100.00
2023-03-28T06:41:15.264Z,99.71
2023-03-28T06:43:43.591Z,99.67
2023-03-28T06:46:31.408Z,99.83
2023-03-28T06:49:00.834Z,99.71
2023-03-28T06:51:28.540Z,99.58
2023-03-28T06:53:56.329Z,99.88
2023-03-28T06:56:28.505Z,99.66
2023-03-28T06:58:57.855Z,99.32
2023-03-28T07:01:27.938Z,99.32
2023-03-28T07:04:02.209Z,99.09
2023-03-28T07:06:30.050Z,98.41
2023-03-28T07:08:58.523Z,97.58
2023-03-28T07:11:37.330Z,96.79
2023-03-28T07:14:05.247Z,96.24
2023-03-28T07:16:32.900Z,96.03
2023-03-28T07:19:00.588Z,95.13
2023-03-28T07:21:33.735Z,94.95
2023-03-28T07:24:03.876Z,94.94
2023-03-28T07:26:43.840Z,94.84
2023-03-28T07:29:11.419Z,94.48
2023-03-28T07:31:39.386Z,93.94
2023-03-28T07:34:06.939Z,93.42
2023-03-28T07:36:38.385Z,93.68
2023-03-28T07:39:12.344Z,92.80
2023-03-28T07:41:40.561Z,92.99
2023-03-28T07:44:08.239Z,92.93
2023-03-28T07:46:37.576Z,92.40
2023-03-28T07:49:05.532Z,91.97
2023-03-28T07:51:34.086Z,91.75
2023-03-28T07:54:01.816Z,90.84
2023-03-28T07:56:29.618Z,90.08
2023-03-28T07:59:09.014Z,89.67
2023-03-28T08:01:36.912Z,89.15
2023-03-28T08:04:05.271Z,88.81
2023-03-28T08:06:47.369Z,88.50
2023-03-28T08:09:17.014Z,89.00
2023-03-28T08:11:48.301Z,88.60
2023-03-28T08:14:18.232Z,88.23
2023-03-28T08:16:46.881Z,88.23
2023-03-28T08:19:14.590Z,88.55
2023-03-28T08:22:10.564Z,88.19
2023-03-28T08:24:45.647Z,87.80
2023-03-28T08:27:21.067Z,86.81
2023-03-28T08:29:51.885Z,86.79
2023-03-28T08:32:20.188Z,86.60
2023-03-28T08:34:48.052Z,86.42
2023-03-28T08:37:21.842Z,85.66
2023-03-28T08:39:50.496Z,86.19
2023-03-28T08:42:25.396Z,86.01
2023-03-28T08:45:20.453Z,85.71
2023-03-28T08:48:13.896Z,86.09
2023-03-28T08:50:49.977Z,84.90
2023-03-28T08:53:30.454Z,84.23
2023-03-28T08:55:59.552Z,84.88
2023-03-28T08:58:37.600Z,84.44
2023-03-28T09:01:05.287Z,84.11
2023-03-28T09:03:36.119Z,83.56
2023-03-28T09:06:26.265Z,82.92
2023-03-28T09:09:21.621Z,82.41
2023-03-28T09:12:23.907Z,82.79
2023-03-28T09:15:22.922Z,82.06
2023-03-28T09:18:38.289Z,81.76
2023-03-28T09:21:39.001Z,80.91
2023-03-28T09:24:12.575Z,79.23
2023-03-28T09:27:03.573Z,79.06
2023-03-28T09:29:38.468Z,77.97
2023-03-28T09:32:26.018Z,77.94
2023-03-28T09:34:53.666Z,77.76
2023-03-28T09:37:25.427Z,75.96
2023-03-28T09:39:56.479Z,76.38
2023-03-28T09:42:53.893Z,76.38
2023-03-28T09:45:49.786Z,76.35
2023-03-28T09:48:48.133Z,75.50
2023-03-28T09:51:20.524Z,75.02
2023-03-28T09:53:48.428Z,74.54
2023-03-28T09:56:38.285Z,74.77
2023-03-28T09:59:31.169Z,73.17
2023-03-28T10:02:28.105Z,73.19
2023-03-28T10:04:57.811Z,72.28
2023-03-28T10:07:45.827Z,71.62
2023-03-28T10:10:25.380Z,70.92
2023-03-28T10:13:05.035Z,71.33
2023-03-28T10:15:45.974Z,71.31
2023-03-28T10:18:33.081Z,71.32
2023-03-28T10:21:24.014Z,70.28
2023-03-28T10:24:15.589Z,70.39
2023-03-28T10:26:48.178Z,69.51
2023-03-28T10:29:16.372Z,69.99
2023-03-28T10:31:50.882Z,69.28
2023-03-28T10:34:31.491Z,68.65
2023-03-28T10:37:29.652Z,68.00
2023-03-28T10:40:17.976Z,67.83
2023-03-28T10:43:12.870Z,67.93
2023-03-28T10:45:51.624Z,68.04
2023-03-28T10:48:33.673Z,67.83
2023-03-28T10:51:17.006Z,67.80
2023-03-28T10:54:13.786Z,68.32
2023-03-28T10:56:58.543Z,68.08
2023-03-28T10:59:51.536Z,67.73
2023-03-28T11:02:49.998Z,67.12
2023-03-28T11:06:08.689Z,67.47
2023-03-28T11:08:43.424Z,68.24
2023-03-28T11:11:36.572Z,66.40
2023-03-28T11:14:27.071Z,66.69
2023-03-28T11:17:06.978Z,66.05
2023-03-28T11:20:31.995Z,66.37
2023-03-28T11:23:42.903Z,66.92
2023-03-28T11:26:44.697Z,67.76
2023-03-28T11:29:54.627Z,66.59
2023-03-28T11:32:41.716Z,65.67
2023-03-28T11:35:34.706Z,65.65
2023-03-28T11:38:11.587Z,65.56
2023-03-28T11:41:22.004Z,64.97
2023-03-28T11:44:26.642Z,64.81
2023-03-28T11:47:10.419Z,62.44
2023-03-28T11:50:04.761Z,62.39
2023-03-28T11:53:05.169Z,62.73
2023-03-28T11:55:51.302Z,62.37
2023-03-28T11:58:43.531Z,61.27
2023-03-28T12:01:21.027Z,60.54
2023-03-28T12:04:07.809Z,59.75
2023-03-28T12:07:04.796Z,59.94
2023-03-28T12:10:16.609Z,59.13
2023-03-28T12:13:17.417Z,58.60
2023-03-28T12:16:04.060Z,58.72
2023-03-28T12:18:58.657Z,58.70
2023-03-28T12:22:02.737Z,58.65
2023-03-28T12:25:12.703Z,59.48
2023-03-28T12:28:03.464Z,59.65
2023-03-28T12:30:59.089Z,58.61
2023-03-28T12:33:43.409Z,57.47
2023-03-28T12:36:34.701Z,57.67
2023-03-28T12:39:34.352Z,57.46
2023-03-28T12:42:12.822Z,56.15
2023-03-28T12:45:09.502Z,54.84
2023-03-28T12:47:45.301Z,54.08
2023-03-28T12:50:28.313Z,53.36
2023-03-28T12:52:59.064Z,53.50
2023-03-28T12:55:35.575Z,54.13
2023-03-28T12:58:19.445Z,53.39
2023-03-28T13:01:47.823Z,53.61
2023-03-28T13:04:36.363Z,53.07
2023-03-28T13:07:26.333Z,52.99
2023-03-28T13:10:29.152Z,52.86
2023-03-28T13:13:33.749Z,54.10
2023-03-28T13:16:32.081Z,54.18
2023-03-28T13:19:12.056Z,53.95
2023-03-28T13:21:54.090Z,53.70
2023-03-28T13:24:36.284Z,54.27
2023-03-28T13:27:15.916Z,53.78
2023-03-28T13:29:50.876Z,54.00
2023-03-28T13:32:24.724Z,53.34
2023-03-28T13:34:59.962Z,53.41
2023-03-28T13:37:42.960Z,52.98
2023-03-28T13:40:47.091Z,52.06
2023-03-28T13:43:45.150Z,51.94
2023-03-28T13:46:46.312Z,52.23
2023-03-28T13:49:19.463Z,52.22
2023-03-28T13:52:05.058Z,51.64
2023-03-28T13:54:32.783Z,51.63
2023-03-28T13:57:15.185Z,50.84
2023-03-28T14:00:14.566Z,51.51
2023-03-28T14:02:49.186Z,51.95
2023-03-28T14:05:28.083Z,52.07
2023-03-28T14:08:20.127Z,51.37
2023-03-28T14:10:50.977Z,51.39
2023-03-28T14:13:24.622Z,50.75
2023-03-28T14:15:53.645Z,51.33
2023-03-28T14:18:46.876Z,51.21
2023-03-28T14:21:15.048Z,50.33
2023-03-28T14:24:06.755Z,50.36
2023-03-28T14:26:38.184Z,50.65
2023-03-28T14:29:13.258Z,49.74
2023-03-28T14:31:46.364Z,49.72
2023-03-28T14:34:30.441Z,49.79
2023-03-28T14:37:14.877Z,50.64
2023-03-28T14:39:42.670Z,50.92
2023-03-28T14:42:20.191Z,49.87
2023-03-28T14:44:53.930Z,50.23
2023-03-28T14:47:35.261Z,50.19
2023-03-28T14:50:08.319Z,49.73
2023-03-28T14:52:40.999Z,49.67
2023-03-28T14:55:19.855Z,50.32
2023-03-28T14:57:52.374Z,49.82
2023-03-28T15:00:33.418Z,50.28
2023-03-28T15:03:03.441Z,50.57
2023-03-28T15:05:31.442Z,50.83
2023-03-28T15:08:02.409Z,51.01
2023-03-28T15:10:33.626Z,50.48
2023-03-28T15:13:11.591Z,51.03
2023-03-28T15:15:46.025Z,51.25
2023-03-28T15:18:25.264Z,51.70
2023-03-28T15:20:59.576Z,51.04
2023-03-28T15:23:34.853Z,51.07
2023-03-28T15:26:13.156Z,50.74
2023-03-28T15:28:41.031Z,50.47
2023-03-28T15:31:10.866Z,50.87
2023-03-28T15:33:38.424Z,49.68
2023-03-28T15:36:32.435Z,49.57
2023-03-28T15:39:11.298Z,49.77
2023-03-28T15:41:49.076Z,50.00
2023-03-28T15:44:37.900Z,50.38
2023-03-28T15:47:13.153Z,50.89
2023-03-28T15:49:41.193Z,50.54
2023-03-28T15:52:20.028Z,50.24
2023-03-28T15:54:54.107Z,50.33
2023-03-28T15:57:27.516Z,50.76
2023-03-28T15:59:58.109Z,50.79
2023-03-28T16:02:25.740Z,50.56
2023-03-28T16:05:32.374Z,51.19
2023-03-28T16:08:00.500Z,51.31
2023-03-28T16:10:30.148Z,51.34
2023-03-28T16:13:18.076Z,51.31
2023-03-28T16:16:27.539Z,51.55
2023-03-28T16:19:18.826Z,51.53
2023-03-28T16:21:48.495Z,51.41
2023-03-28T16:24:16.197Z,51.68
2023-03-28T16:26:44.373Z,51.60
2023-03-28T16:29:11.929Z,51.69
2023-03-28T16:31:40.327Z,51.51
2023-03-28T16:34:09.862Z,51.56
2023-03-28T16:36:39.341Z,50.99
2023-03-28T16:39:08.345Z,51.71
2023-03-28T16:41:37.239Z,51.65
2023-03-28T16:44:05.488Z,52.14
2023-03-28T16:46:36.074Z,52.51
2023-03-28T16:49:03.830Z,52.65
2023-03-28T16:51:31.339Z,53.05
2023-03-28T16:53:59.303Z,53.20
2023-03-28T16:56:27.577Z,53.58
2023-03-28T16:58:55.170Z,53.80
2023-03-28T17:01:23.229Z,53.78
2023-03-28T17:03:52.716Z,53.73
2023-03-28T17:06:20.477Z,53.82
2023-03-28T17:08:49.594Z,54.08
2023-03-28T17:11:17.295Z,54.18
2023-03-28T17:13:54.724Z,54.42
2023-03-28T17:16:23.223Z,54.81
2023-03-28T17:18:53.394Z,55.11
2023-03-28T17:21:21.757Z,54.88
2023-03-28T17:23:51.286Z,54.85
2023-03-28T17:26:19.922Z,55.41
2023-03-28T17:28:48.098Z,55.18
2023-03-28T17:31:19.852Z,55.27
2023-03-28T17:33:48.641Z,56.17
2023-03-28T17:36:22.321Z,56.46
2023-03-28T17:38:52.264Z,57.56
2023-03-28T17:41:23.190Z,58.05
2023-03-28T17:43:53.592Z,58.18
2023-03-28T17:46:22.229Z,58.85
2023-03-28T17:48:50.252Z,59.50
2023-03-28T17:51:18.472Z,60.25
2023-03-28T17:53:47.152Z,60.49
2023-03-28T17:56:18.535Z,60.39
2023-03-28T17:58:46.857Z,60.59
2023-03-28T18:01:19.741Z,61.09
2023-03-28T18:03:47.370Z,61.33
2023-03-28T18:06:25.765Z,61.93
2023-03-28T18:08:53.367Z,62.33
2023-03-28T18:11:25.501Z,62.99
2023-03-28T18:14:00.703Z,62.87
2023-03-28T18:16:44.922Z,63.44
2023-03-28T18:19:17.715Z,63.94
2023-03-28T18:21:46.644Z,64.72
2023-03-28T18:24:14.309Z,64.97
2023-03-28T18:26:42.306Z,66.19
2023-03-28T18:29:11.463Z,67.32
2023-03-28T18:31:40.583Z,68.16
2023-03-28T18:34:08.395Z,67.94
2023-03-28T18:36:37.642Z,68.75
2023-03-28T18:39:06.133Z,69.15
2023-03-28T18:41:34.031Z,70.93
2023-03-28T18:44:05.473Z,71.16
2023-03-28T18:46:33.691Z,70.83
2023-03-28T18:49:01.812Z,72.37
2023-03-28T18:51:32.072Z,73.06
2023-03-28T18:54:00.387Z,73.62
2023-03-28T18:56:28.295Z,74.27
2023-03-28T18:58:57.876Z,74.56
2023-03-28T19:01:25.509Z,75.43
2023-03-28T19:03:55.427Z,75.68
2023-03-28T19:06:23.185Z,75.92
2023-03-28T19:08:51.321Z,76.33
2023-03-28T19:11:21.381Z,76.43
2023-03-28T19:13:50.533Z,76.50
2023-03-28T19:16:19.385Z,76.73
2023-03-28T19:18:47.711Z,77.13
2023-03-28T19:21:16.900Z,77.13
2023-03-28T19:24:07.079Z,77.57
2023-03-28T19:26:35.133Z,77.49
2023-03-28T19:29:02.780Z,77.88
2023-03-28T19:31:30.335Z,78.62
2023-03-28T19:33:57.746Z,78.78
2023-03-28T19:36:25.414Z,78.89
2023-03-28T19:38:53.211Z,79.38
2023-03-28T19:41:24.462Z,79.26
2023-03-28T19:43:52.158Z,79.96
2023-03-28T19:46:33.766Z,79.94
2023-03-28T19:49:06.418Z,80.56
2023-03-28T19:51:34.187Z,79.97
2023-03-28T19:54:01.934Z,80.48
2023-03-28T19:56:29.658Z,81.29
2023-03-28T19:58:57.131Z,81.29
2023-03-28T20:01:25.673Z,81.13
2023-03-28T20:03:53.564Z,81.75
2023-03-28T20:06:22.854Z,82.33
2023-03-28T20:08:51.466Z,82.20
2023-03-28T20:11:19.151Z,82.41
2023-03-28T20:13:46.587Z,82.50
2023-03-28T20:16:14.739Z,82.61
2023-03-28T20:18:42.576Z,82.78
2023-03-28T20:21:13.481Z,82.96
2023-03-28T20:23:41.476Z,82.92
2023-03-28T20:26:18.770Z,83.53
2023-03-28T20:28:49.682Z,83.07
2023-03-28T20:31:19.093Z,82.98
2023-03-28T20:33:46.687Z,83.30
2023-03-28T20:36:14.659Z,83.02
2023-03-28T20:38:42.308Z,83.18
2023-03-28T20:41:18.235Z,83.11
2023-03-28T20:43:50.280Z,83.49
2023-03-28T20:46:19.886Z,83.71
2023-03-28T20:48:56.859Z,83.61
2023-03-28T20:51:29.218Z,83.85
2023-03-28T20:54:00.467Z,83.48
2023-03-28T20:56:30.836Z,83.64
2023-03-28T20:58:59.796Z,83.54
2023-03-28T21:01:30.151Z,83.96
2023-03-28T21:04:00.456Z,84.33
2023-03-28T21:06:34.466Z,84.14
2023-03-28T21:09:07.345Z,84.67
2023-03-28T21:11:37.740Z,84.32
2023-03-28T21:14:08.277Z,85.14
2023-03-28T21:16:37.479Z,84.64
2023-03-28T21:19:06.145Z,84.65
2023-03-28T21:21:34.358Z,85.52
2023-03-28T21:24:03.920Z,85.71
2023-03-28T21:26:32.024Z,85.67
2023-03-28T21:28:59.818Z,85.89
2023-03-28T21:31:29.354Z,86.14
2023-03-28T21:33:59.385Z,85.62
2023-03-28T21:36:28.164Z,86.02
2023-03-28T21:38:56.824Z,85.78
2023-03-28T21:41:24.904Z,85.96
2023-03-28T21:43:54.497Z,86.01
2023-03-28T21:46:22.968Z,85.85
2023-03-28T21:48:50.851Z,85.97
2023-03-28T21:51:18.500Z,86.30
2023-03-28T21:53:46.261Z,86.18
2023-03-28T21:56:16.257Z,86.51
2023-03-28T21:58:43.998Z,86.94
2023-03-28T22:01:17.448Z,86.74
2023-03-28T22:03:47.514Z,87.28
2023-03-28T22:06:18.120Z,87.30
2023-03-28T22:08:51.692Z,87.17
2023-03-28T22:11:27.836Z,87.53
2023-03-28T22:14:02.407Z,87.81
2023-03-28T22:16:38.075Z,87.67
2023-03-28T22:19:11.319Z,88.17
2023-03-28T22:21:38.883Z,88.18
2023-03-28T22:24:13.259Z,88.50
2023-03-28T22:26:42.441Z,88.36
2023-03-28T22:29:10.543Z,88.44
2023-03-28T22:31:38.098Z,88.57
2023-03-28T22:34:05.682Z,88.78
2023-03-28T22:36:33.211Z,88.29
2023-03-28T22:39:01.246Z,88.40
2023-03-28T22:41:32.222Z,89.18
2023-03-28T22:43:59.829Z,89.19
2023-03-28T22:46:27.437Z,89.13
2023-03-28T22:48:58.014Z,89.04
2023-03-28T22:51:27.627Z,89.26
2023-03-28T22:54:00.069Z,88.99
2023-03-28T22:56:27.761Z,89.10
2023-03-28T22:58:55.927Z,89.35
2023-03-28T23:01:25.997Z,89.50
2023-03-28T23:03:53.648Z,89.23
2023-03-28T23:06:21.141Z,89.53
2023-03-28T23:08:48.582Z,89.37
2023-03-28T23:11:16.152Z,89.27
2023-03-28T23:13:43.574Z,89.52
2023-03-28T23:16:11.270Z,89.25
2023-03-28T23:18:38.960Z,89.14
2023-03-28T23:21:08.407Z,89.87
2023-03-28T23:23:36.031Z,89.55
2023-03-28T23:26:03.722Z,89.71
2023-03-28T23:28:31.344Z,89.46
2023-03-28T23:30:58.950Z,89.52
2023-03-28T23:33:27.023Z,89.70
2023-03-28T23:35:56.773Z,89.53
2023-03-28T23:38:24.468Z,89.94
2023-03-28T23:40:52.117Z,90.25
2023-03-28T23:43:19.878Z,90.19
2023-03-28T23:45:47.738Z,90.25
2023-03-28T23:48:15.719Z,90.36
2023-03-28T23:50:43.760Z,89.85
2023-03-28T23:53:11.257Z,89.85
2023-03-28T23:55:38.674Z,89.81
2023-03-28T23:58:06.739Z,90.21
